sensor_id;sensor_type;location;lat;lon;timestamp;P1;durP1;ratioP1;P2;durP2;ratioP2
54193;SDS011;40102;50.906;6.972;2022-09-23T00:00:29;2.72;;;2.08;;
54193;SDS011;40102;50.906;6.972;2022-09-23T00:02:55;5.05;;;1.95;;
54193;SDS011;40102;50.906;6.972;2022-09-23T00:05:20;6.25;;;2.90;;
54193;SDS011;40102;50.906;6.972;2022-09-23T00:07:45;3.33;;;2.10;;
54193;SDS011;40102;50.906;6.972;2022-09-23T00:10:12;5.25;;;2.20;;
54193;SDS011;40102;50.906;6.972;2022-09-23T00:12:39;7.80;;;2.33;;
54193;SDS011;40102;50.906;6.972;2022-09-23T00:15:05;3.55;;;2.25;;
54193;SDS011;40102;50.906;6.972;2022-09-23T00:17:31;4.22;;;2.15;;
54193;SDS011;40102;50.906;6.972;2022-09-23T00:19:57;5.85;;;2.50;;
54193;SDS011;40102;50.906;6.972;2022-09-23T00:22:22;4.45;;;2.42;;
54193;SDS011;40102;50.906;6.972;2022-09-23T00:24:48;4.30;;;2.00;;
54193;SDS011;40102;50.906;6.972;2022-09-23T00:27:13;4.30;;;2.28;;
54193;SDS011;40102;50.906;6.972;2022-09-23T00:29:39;4.53;;;2.22;;
54193;SDS011;40102;50.906;6.972;2022-09-23T00:32:04;4.75;;;2.35;;
54193;SDS011;40102;50.906;6.972;2022-09-23T00:34:30;6.85;;;2.22;;
54193;SDS011;40102;50.906;6.972;2022-09-23T00:36:55;4.95;;;2.10;;
54193;SDS011;40102;50.906;6.972;2022-09-23T00:39:22;6.60;;;2.20;;
54193;SDS011;40102;50.906;6.972;2022-09-23T00:41:48;4.00;;;2.53;;
54193;SDS011;40102;50.906;6.972;2022-09-23T00:47:16;3.00;;;2.15;;
54193;SDS011;40102;50.906;6.972;2022-09-23T00:49:47;5.88;;;2.38;;
54193;SDS011;40102;50.906;6.972;2022-09-23T00:52:19;6.25;;;2.40;;
54193;SDS011;40102;50.906;6.972;2022-09-23T00:54:47;4.22;;;2.20;;
54193;SDS011;40102;50.906;6.972;2022-09-23T00:57:19;4.30;;;2.42;;
54193;SDS011;40102;50.906;6.972;2022-09-23T00:59:44;5.85;;;2.30;;
54193;SDS011;40102;50.906;6.972;2022-09-23T01:02:10;4.20;;;2.10;;
54193;SDS011;40102;50.906;6.972;2022-09-23T01:04:38;2.75;;;1.85;;
54193;SDS011;40102;50.906;6.972;2022-09-23T01:07:04;7.22;;;2.33;;
54193;SDS011;40102;50.906;6.972;2022-09-23T01:09:30;2.72;;;2.08;;
54193;SDS011;40102;50.906;6.972;2022-09-23T01:21:11;3.30;;;2.00;;
54193;SDS011;40102;50.906;6.972;2022-09-23T01:31:54;3.10;;;1.95;;
54193;SDS011;40102;50.906;6.972;2022-09-23T01:37:07;3.80;;;2.10;;
54193;SDS011;40102;50.906;6.972;2022-09-23T01:39:37;5.07;;;2.28;;
54193;SDS011;40102;50.906;6.972;2022-09-23T01:44:57;3.35;;;1.80;;
54193;SDS011;40102;50.906;6.972;2022-09-23T01:50:02;3.22;;;2.10;;
54193;SDS011;40102;50.906;6.972;2022-09-23T01:52:51;9.00;;;2.95;;
54193;SDS011;40102;50.906;6.972;2022-09-23T01:55:38;4.55;;;2.45;;
54193;SDS011;40102;50.906;6.972;2022-09-23T01:58:10;3.65;;;2.42;;
54193;SDS011;40102;50.906;6.972;2022-09-23T02:00:42;5.88;;;2.05;;
54193;SDS011;40102;50.906;6.972;2022-09-23T02:03:18;2.28;;;1.77;;
54193;SDS011;40102;50.906;6.972;2022-09-23T02:05:55;4.03;;;2.08;;
54193;SDS011;40102;50.906;6.972;2022-09-23T02:08:31;3.10;;;2.00;;
54193;SDS011;40102;50.906;6.972;2022-09-23T02:10:59;4.55;;;2.05;;
54193;SDS011;40102;50.906;6.972;2022-09-23T02:13:31;7.93;;;2.30;;
54193;SDS011;40102;50.906;6.972;2022-09-23T02:16:21;8.40;;;2.45;;
54193;SDS011;40102;50.906;6.972;2022-09-23T02:18:50;4.32;;;1.95;;
54193;SDS011;40102;50.906;6.972;2022-09-23T02:21:20;4.03;;;2.10;;
54193;SDS011;40102;50.906;6.972;2022-09-23T02:23:51;3.97;;;2.20;;
54193;SDS011;40102;50.906;6.972;2022-09-23T02:26:20;3.22;;;1.90;;
54193;SDS011;40102;50.906;6.972;2022-09-23T02:34:45;4.30;;;2.05;;
54193;SDS011;40102;50.906;6.972;2022-09-23T02:37:38;4.15;;;2.30;;
54193;SDS011;40102;50.906;6.972;2022-09-23T02:45:39;6.35;;;2.05;;
54193;SDS011;40102;50.906;6.972;2022-09-23T02:48:09;3.70;;;2.00;;
54193;SDS011;40102;50.906;6.972;2022-09-23T02:50:38;4.65;;;2.20;;
54193;SDS011;40102;50.906;6.972;2022-09-23T02:53:04;3.42;;;2.40;;
54193;SDS011;40102;50.906;6.972;2022-09-23T02:55:31;4.90;;;2.00;;
54193;SDS011;40102;50.906;6.972;2022-09-23T02:57:58;11.90;;;2.88;;
54193;SDS011;40102;50.906;6.972;2022-09-23T03:00:27;6.63;;;3.05;;
54193;SDS011;40102;50.906;6.972;2022-09-23T03:05:26;3.30;;;2.10;;
54193;SDS011;40102;50.906;6.972;2022-09-23T03:13:38;5.68;;;2.35;;
54193;SDS011;40102;50.906;6.972;2022-09-23T03:16:17;3.53;;;2.10;;
54193;SDS011;40102;50.906;6.972;2022-09-23T03:19:22;4.05;;;2.35;;
54193;SDS011;40102;50.906;6.972;2022-09-23T03:21:52;3.45;;;2.22;;
54193;SDS011;40102;50.906;6.972;2022-09-23T03:24:24;5.18;;;2.30;;
54193;SDS011;40102;50.906;6.972;2022-09-23T03:26:51;3.30;;;2.20;;
54193;SDS011;40102;50.906;6.972;2022-09-23T03:29:17;4.40;;;2.30;;
54193;SDS011;40102;50.906;6.972;2022-09-23T03:31:46;4.07;;;2.00;;
54193;SDS011;40102;50.906;6.972;2022-09-23T03:34:13;6.55;;;3.00;;
54193;SDS011;40102;50.906;6.972;2022-09-23T03:36:48;3.92;;;2.40;;
54193;SDS011;40102;50.906;6.972;2022-09-23T03:41:57;3.88;;;2.30;;
54193;SDS011;40102;50.906;6.972;2022-09-23T03:44:27;5.55;;;2.45;;
54193;SDS011;40102;50.906;6.972;2022-09-23T03:46:53;2.30;;;1.98;;
54193;SDS011;40102;50.906;6.972;2022-09-23T03:49:26;4.50;;;2.30;;
54193;SDS011;40102;50.906;6.972;2022-09-23T03:51:53;4.07;;;2.38;;
54193;SDS011;40102;50.906;6.972;2022-09-23T03:54:19;4.20;;;2.47;;
54193;SDS011;40102;50.906;6.972;2022-09-23T03:56:45;3.72;;;2.30;;
54193;SDS011;40102;50.906;6.972;2022-09-23T03:59:14;2.75;;;2.15;;
54193;SDS011;40102;50.906;6.972;2022-09-23T04:01:40;5.30;;;2.60;;
54193;SDS011;40102;50.906;6.972;2022-09-23T04:04:06;4.90;;;2.15;;
54193;SDS011;40102;50.906;6.972;2022-09-23T04:06:32;4.90;;;2.58;;
54193;SDS011;40102;50.906;6.972;2022-09-23T04:08:58;6.25;;;2.20;;
54193;SDS011;40102;50.906;6.972;2022-09-23T04:11:23;3.53;;;2.22;;
54193;SDS011;40102;50.906;6.972;2022-09-23T04:13:49;4.55;;;2.45;;
54193;SDS011;40102;50.906;6.972;2022-09-23T04:16:14;4.25;;;2.00;;
54193;SDS011;40102;50.906;6.972;2022-09-23T04:18:42;3.88;;;2.10;;
54193;SDS011;40102;50.906;6.972;2022-09-23T04:21:08;3.95;;;2.22;;
54193;SDS011;40102;50.906;6.972;2022-09-23T04:23:34;3.85;;;2.45;;
54193;SDS011;40102;50.906;6.972;2022-09-23T04:25:59;4.13;;;2.28;;
54193;SDS011;40102;50.906;6.972;2022-09-23T04:28:24;2.65;;;1.98;;
54193;SDS011;40102;50.906;6.972;2022-09-23T04:30:50;3.35;;;2.30;;
54193;SDS011;40102;50.906;6.972;2022-09-23T04:33:16;4.93;;;2.40;;
54193;SDS011;40102;50.906;6.972;2022-09-23T04:35:41;4.20;;;2.22;;
54193;SDS011;40102;50.906;6.972;2022-09-23T04:38:08;3.50;;;2.20;;
54193;SDS011;40102;50.906;6.972;2022-09-23T04:40:35;3.42;;;2.30;;
54193;SDS011;40102;50.906;6.972;2022-09-23T04:43:00;4.65;;;2.30;;
54193;SDS011;40102;50.906;6.972;2022-09-23T04:45:26;4.53;;;2.45;;
54193;SDS011;40102;50.906;6.972;2022-09-23T04:47:51;2.63;;;2.20;;
54193;SDS011;40102;50.906;6.972;2022-09-23T04:50:17;5.03;;;2.45;;
54193;SDS011;40102;50.906;6.972;2022-09-23T04:52:43;3.58;;;2.20;;
54193;SDS011;40102;50.906;6.972;2022-09-23T04:55:08;3.30;;;2.40;;
54193;SDS011;40102;50.906;6.972;2022-09-23T04:57:34;3.65;;;2.20;;
54193;SDS011;40102;50.906;6.972;2022-09-23T05:00:00;7.03;;;2.22;;
54193;SDS011;40102;50.906;6.972;2022-09-23T05:02:25;4.10;;;2.47;;
54193;SDS011;40102;50.906;6.972;2022-09-23T05:04:52;4.20;;;2.13;;
54193;SDS011;40102;50.906;6.972;2022-09-23T05:07:18;3.67;;;2.33;;
54193;SDS011;40102;50.906;6.972;2022-09-23T05:09:43;7.32;;;2.60;;
54193;SDS011;40102;50.906;6.972;2022-09-23T05:12:09;2.90;;;2.15;;
54193;SDS011;40102;50.906;6.972;2022-09-23T05:14:35;4.47;;;2.58;;
54193;SDS011;40102;50.906;6.972;2022-09-23T05:17:02;3.78;;;1.92;;
54193;SDS011;40102;50.906;6.972;2022-09-23T05:19:28;6.35;;;2.70;;
54193;SDS011;40102;50.906;6.972;2022-09-23T05:21:54;3.92;;;2.53;;
54193;SDS011;40102;50.906;6.972;2022-09-23T05:24:19;3.30;;;2.40;;
54193;SDS011;40102;50.906;6.972;2022-09-23T05:26:45;5.35;;;2.50;;
54193;SDS011;40102;50.906;6.972;2022-09-23T05:29:12;8.65;;;2.60;;
54193;SDS011;40102;50.906;6.972;2022-09-23T05:31:37;5.50;;;2.60;;
54193;SDS011;40102;50.906;6.972;2022-09-23T05:34:03;4.82;;;2.63;;
54193;SDS011;40102;50.906;6.972;2022-09-23T05:36:29;5.63;;;2.60;;
54193;SDS011;40102;50.906;6.972;2022-09-23T05:38:56;7.70;;;2.95;;
54193;SDS011;40102;50.906;6.972;2022-09-23T05:41:22;4.70;;;3.05;;
54193;SDS011;40102;50.906;6.972;2022-09-23T05:43:49;4.07;;;2.60;;
54193;SDS011;40102;50.906;6.972;2022-09-23T05:46:18;6.47;;;2.85;;
54193;SDS011;40102;50.906;6.972;2022-09-23T05:48:45;8.63;;;3.63;;
54193;SDS011;40102;50.906;6.972;2022-09-23T05:51:21;5.15;;;2.85;;
54193;SDS011;40102;50.906;6.972;2022-09-23T05:53:52;4.88;;;2.58;;
54193;SDS011;40102;50.906;6.972;2022-09-23T05:56:20;7.80;;;2.80;;
54193;SDS011;40102;50.906;6.972;2022-09-23T05:58:47;5.75;;;2.72;;
54193;SDS011;40102;50.906;6.972;2022-09-23T06:01:14;4.50;;;2.53;;
54193;SDS011;40102;50.906;6.972;2022-09-23T06:03:47;8.85;;;2.90;;
54193;SDS011;40102;50.906;6.972;2022-09-23T06:06:17;6.10;;;2.60;;
54193;SDS011;40102;50.906;6.972;2022-09-23T06:08:44;4.32;;;2.80;;
54193;SDS011;40102;50.906;6.972;2022-09-23T06:11:10;7.22;;;2.75;;
54193;SDS011;40102;50.906;6.972;2022-09-23T06:13:36;8.07;;;3.05;;
54193;SDS011;40102;50.906;6.972;2022-09-23T06:16:06;4.75;;;2.60;;
54193;SDS011;40102;50.906;6.972;2022-09-23T06:18:34;6.63;;;2.67;;
54193;SDS011;40102;50.906;6.972;2022-09-23T06:21:01;10.05;;;2.63;;
54193;SDS011;40102;50.906;6.972;2022-09-23T06:23:28;9.57;;;2.95;;
54193;SDS011;40102;50.906;6.972;2022-09-23T06:25:58;4.63;;;2.63;;
54193;SDS011;40102;50.906;6.972;2022-09-23T06:28:27;3.42;;;2.53;;
54193;SDS011;40102;50.906;6.972;2022-09-23T06:31:01;5.38;;;2.90;;
54193;SDS011;40102;50.906;6.972;2022-09-23T06:33:29;5.53;;;3.60;;
54193;SDS011;40102;50.906;6.972;2022-09-23T06:35:56;5.07;;;2.33;;
54193;SDS011;40102;50.906;6.972;2022-09-23T06:38:22;5.72;;;2.97;;
54193;SDS011;40102;50.906;6.972;2022-09-23T06:40:49;5.32;;;2.88;;
54193;SDS011;40102;50.906;6.972;2022-09-23T06:43:18;5.72;;;2.63;;
54193;SDS011;40102;50.906;6.972;2022-09-23T06:45:50;4.82;;;3.13;;
54193;SDS011;40102;50.906;6.972;2022-09-23T06:48:17;4.85;;;2.60;;
54193;SDS011;40102;50.906;6.972;2022-09-23T06:50:43;3.78;;;2.28;;
54193;SDS011;40102;50.906;6.972;2022-09-23T06:53:08;7.70;;;2.80;;
54193;SDS011;40102;50.906;6.972;2022-09-23T06:55:34;5.90;;;2.92;;
54193;SDS011;40102;50.906;6.972;2022-09-23T06:57:59;5.05;;;2.65;;
54193;SDS011;40102;50.906;6.972;2022-09-23T07:00:24;6.15;;;2.70;;
54193;SDS011;40102;50.906;6.972;2022-09-23T07:02:50;3.50;;;2.53;;
54193;SDS011;40102;50.906;6.972;2022-09-23T07:05:16;6.20;;;3.20;;
54193;SDS011;40102;50.906;6.972;2022-09-23T07:07:45;3.95;;;2.78;;
54193;SDS011;40102;50.906;6.972;2022-09-23T07:10:11;6.32;;;3.22;;
54193;SDS011;40102;50.906;6.972;2022-09-23T07:12:36;4.68;;;2.78;;
54193;SDS011;40102;50.906;6.972;2022-09-23T07:15:02;5.82;;;2.63;;
54193;SDS011;40102;50.906;6.972;2022-09-23T07:17:28;5.85;;;2.65;;
54193;SDS011;40102;50.906;6.972;2022-09-23T07:19:54;3.60;;;2.50;;
54193;SDS011;40102;50.906;6.972;2022-09-23T07:22:23;7.45;;;2.67;;
54193;SDS011;40102;50.906;6.972;2022-09-23T07:24:50;6.95;;;2.50;;
54193;SDS011;40102;50.906;6.972;2022-09-23T07:27:22;8.93;;;2.83;;
54193;SDS011;40102;50.906;6.972;2022-09-23T07:29:49;6.13;;;2.45;;
54193;SDS011;40102;50.906;6.972;2022-09-23T07:32:16;9.05;;;2.78;;
54193;SDS011;40102;50.906;6.972;2022-09-23T07:34:44;5.90;;;2.58;;
54193;SDS011;40102;50.906;6.972;2022-09-23T07:37:11;5.15;;;2.53;;
54193;SDS011;40102;50.906;6.972;2022-09-23T07:39:36;5.38;;;2.95;;
54193;SDS011;40102;50.906;6.972;2022-09-23T07:42:03;4.90;;;3.10;;
54193;SDS011;40102;50.906;6.972;2022-09-23T07:44:30;4.20;;;2.53;;
54193;SDS011;40102;50.906;6.972;2022-09-23T07:46:56;4.53;;;2.70;;
54193;SDS011;40102;50.906;6.972;2022-09-23T07:49:22;3.58;;;2.30;;
54193;SDS011;40102;50.906;6.972;2022-09-23T07:51:48;5.15;;;2.35;;
54193;SDS011;40102;50.906;6.972;2022-09-23T07:54:14;6.60;;;2.45;;
54193;SDS011;40102;50.906;6.972;2022-09-23T07:56:41;4.25;;;2.72;;
54193;SDS011;40102;50.906;6.972;2022-09-23T07:59:07;4.80;;;2.75;;
54193;SDS011;40102;50.906;6.972;2022-09-23T08:01:40;3.80;;;2.38;;
54193;SDS011;40102;50.906;6.972;2022-09-23T08:04:29;4.88;;;2.30;;
54193;SDS011;40102;50.906;6.972;2022-09-23T08:06:57;6.60;;;2.80;;
54193;SDS011;40102;50.906;6.972;2022-09-23T08:09:26;3.65;;;2.53;;
54193;SDS011;40102;50.906;6.972;2022-09-23T08:11:56;7.13;;;2.58;;
54193;SDS011;40102;50.906;6.972;2022-09-23T08:14:22;4.18;;;2.60;;
54193;SDS011;40102;50.906;6.972;2022-09-23T08:16:51;6.05;;;2.40;;
54193;SDS011;40102;50.906;6.972;2022-09-23T08:19:16;4.43;;;2.50;;
54193;SDS011;40102;50.906;6.972;2022-09-23T08:21:43;5.00;;;2.60;;
54193;SDS011;40102;50.906;6.972;2022-09-23T08:24:12;3.38;;;2.40;;
54193;SDS011;40102;50.906;6.972;2022-09-23T08:26:45;3.50;;;2.22;;
54193;SDS011;40102;50.906;6.972;2022-09-23T08:29:12;5.97;;;2.42;;
54193;SDS011;40102;50.906;6.972;2022-09-23T08:31:39;3.65;;;2.42;;
54193;SDS011;40102;50.906;6.972;2022-09-23T08:34:05;4.05;;;2.72;;
54193;SDS011;40102;50.906;6.972;2022-09-23T08:36:31;6.00;;;2.35;;
54193;SDS011;40102;50.906;6.972;2022-09-23T08:38:57;9.50;;;2.65;;
54193;SDS011;40102;50.906;6.972;2022-09-23T08:44:14;7.80;;;2.63;;
54193;SDS011;40102;50.906;6.972;2022-09-23T08:46:49;3.20;;;2.45;;
54193;SDS011;40102;50.906;6.972;2022-09-23T08:49:27;3.10;;;2.08;;
54193;SDS011;40102;50.906;6.972;2022-09-23T08:52:01;4.95;;;2.40;;
54193;SDS011;40102;50.906;6.972;2022-09-23T08:54:37;3.72;;;2.15;;
54193;SDS011;40102;50.906;6.972;2022-09-23T08:57:02;6.63;;;2.50;;
54193;SDS011;40102;50.906;6.972;2022-09-23T09:02:10;3.65;;;2.50;;
54193;SDS011;40102;50.906;6.972;2022-09-23T09:04:42;6.88;;;2.70;;
54193;SDS011;40102;50.906;6.972;2022-09-23T09:07:14;2.80;;;2.20;;
54193;SDS011;40102;50.906;6.972;2022-09-23T09:10:01;3.47;;;2.40;;
54193;SDS011;40102;50.906;6.972;2022-09-23T09:12:39;2.90;;;2.03;;
54193;SDS011;40102;50.906;6.972;2022-09-23T09:15:14;4.20;;;2.60;;
54193;SDS011;40102;50.906;6.972;2022-09-23T09:20:34;3.67;;;2.13;;
54193;SDS011;40102;50.906;6.972;2022-09-23T09:25:42;4.78;;;2.45;;
54193;SDS011;40102;50.906;6.972;2022-09-23T09:28:21;4.07;;;2.17;;
54193;SDS011;40102;50.906;6.972;2022-09-23T09:30:54;3.65;;;2.28;;
54193;SDS011;40102;50.906;6.972;2022-09-23T09:39:15;3.45;;;2.03;;
54193;SDS011;40102;50.906;6.972;2022-09-23T09:41:44;2.70;;;1.98;;
54193;SDS011;40102;50.906;6.972;2022-09-23T09:44:25;3.28;;;1.90;;
54193;SDS011;40102;50.906;6.972;2022-09-23T09:47:13;3.45;;;2.10;;
54193;SDS011;40102;50.906;6.972;2022-09-23T09:52:30;3.35;;;1.85;;
54193;SDS011;40102;50.906;6.972;2022-09-23T09:57:38;3.25;;;2.00;;
54193;SDS011;40102;50.906;6.972;2022-09-23T10:00:32;3.20;;;2.10;;
54193;SDS011;40102;50.906;6.972;2022-09-23T10:03:04;3.40;;;2.10;;
54193;SDS011;40102;50.906;6.972;2022-09-23T10:05:50;6.82;;;2.05;;
54193;SDS011;40102;50.906;6.972;2022-09-23T10:11:03;4.72;;;1.98;;
54193;SDS011;40102;50.906;6.972;2022-09-23T10:13:33;3.42;;;2.20;;
54193;SDS011;40102;50.906;6.972;2022-09-23T10:16:00;8.85;;;2.20;;
54193;SDS011;40102;50.906;6.972;2022-09-23T10:19:10;7.15;;;2.00;;
54193;SDS011;40102;50.906;6.972;2022-09-23T10:21:20;4.68;;;1.83;;
54193;SDS011;40102;50.906;6.972;2022-09-23T10:23:54;3.30;;;1.80;;
54193;SDS011;40102;50.906;6.972;2022-09-23T10:26:26;3.33;;;1.73;;
54193;SDS011;40102;50.906;6.972;2022-09-23T10:28:56;2.50;;;1.80;;
54193;SDS011;40102;50.906;6.972;2022-09-23T10:31:30;4.03;;;2.28;;
54193;SDS011;40102;50.906;6.972;2022-09-23T10:34:01;3.50;;;1.75;;
54193;SDS011;40102;50.906;6.972;2022-09-23T10:36:44;2.90;;;1.90;;
54193;SDS011;40102;50.906;6.972;2022-09-23T10:39:19;4.10;;;1.90;;
54193;SDS011;40102;50.906;6.972;2022-09-23T10:42:05;4.10;;;2.00;;
54193;SDS011;40102;50.906;6.972;2022-09-23T10:45:06;5.00;;;2.17;;
54193;SDS011;40102;50.906;6.972;2022-09-23T10:48:03;3.85;;;1.75;;
54193;SDS011;40102;50.906;6.972;2022-09-23T10:50:49;2.95;;;1.63;;
54193;SDS011;40102;50.906;6.972;2022-09-23T10:53:22;3.85;;;2.00;;
54193;SDS011;40102;50.906;6.972;2022-09-23T10:56:15;2.95;;;1.60;;
54193;SDS011;40102;50.906;6.972;2022-09-23T11:09:54;2.42;;;1.55;;
54193;SDS011;40102;50.906;6.972;2022-09-23T11:12:43;2.47;;;1.60;;
54193;SDS011;40102;50.906;6.972;2022-09-23T11:26:03;4.47;;;1.65;;
54193;SDS011;40102;50.906;6.972;2022-09-23T11:36:40;4.55;;;1.88;;
54193;SDS011;40102;50.906;6.972;2022-09-23T11:39:16;1.67;;;1.40;;
54193;SDS011;40102;50.906;6.972;2022-09-23T11:41:44;1.58;;;1.35;;
54193;SDS011;40102;50.906;6.972;2022-09-23T11:47:07;4.00;;;1.30;;
54193;SDS011;40102;50.906;6.972;2022-09-23T11:49:40;4.53;;;1.60;;
54193;SDS011;40102;50.906;6.972;2022-09-23T11:52:14;2.67;;;1.20;;
54193;SDS011;40102;50.906;6.972;2022-09-23T11:55:29;4.75;;;1.50;;
54193;SDS011;40102;50.906;6.972;2022-09-23T12:00:19;2.05;;;1.30;;
54193;SDS011;40102;50.906;6.972;2022-09-23T12:02:57;2.47;;;1.40;;
54193;SDS011;40102;50.906;6.972;2022-09-23T12:05:56;5.47;;;1.52;;
54193;SDS011;40102;50.906;6.972;2022-09-23T12:25:31;2.65;;;1.10;;
54193;SDS011;40102;50.906;6.972;2022-09-23T12:28:03;2.85;;;1.10;;
54193;SDS011;40102;50.906;6.972;2022-09-23T12:30:42;2.38;;;1.00;;
54193;SDS011;40102;50.906;6.972;2022-09-23T12:33:14;1.60;;;1.00;;
54193;SDS011;40102;50.906;6.972;2022-09-23T12:35:49;2.40;;;1.00;;
54193;SDS011;40102;50.906;6.972;2022-09-23T12:38:36;2.05;;;1.10;;
54193;SDS011;40102;50.906;6.972;2022-09-23T12:41:22;1.48;;;1.15;;
54193;SDS011;40102;50.906;6.972;2022-09-23T12:43:53;1.38;;;1.02;;
54193;SDS011;40102;50.906;6.972;2022-09-23T12:46:23;3.83;;;1.40;;
54193;SDS011;40102;50.906;6.972;2022-09-23T12:51:26;2.75;;;1.10;;
54193;SDS011;40102;50.906;6.972;2022-09-23T13:01:50;2.08;;;1.30;;
54193;SDS011;40102;50.906;6.972;2022-09-23T13:04:33;1.42;;;0.88;;
54193;SDS011;40102;50.906;6.972;2022-09-23T13:07:28;1.92;;;1.15;;
54193;SDS011;40102;50.906;6.972;2022-09-23T13:10:09;1.48;;;1.00;;
54193;SDS011;40102;50.906;6.972;2022-09-23T13:12:41;2.03;;;1.30;;
54193;SDS011;40102;50.906;6.972;2022-09-23T13:15:51;2.05;;;1.15;;
54193;SDS011;40102;50.906;6.972;2022-09-23T13:20:43;2.13;;;1.20;;
54193;SDS011;40102;50.906;6.972;2022-09-23T13:23:26;4.07;;;1.17;;
54193;SDS011;40102;50.906;6.972;2022-09-23T13:25:57;2.08;;;1.10;;
54193;SDS011;40102;50.906;6.972;2022-09-23T13:31:04;2.65;;;1.23;;
54193;SDS011;40102;50.906;6.972;2022-09-23T13:36:16;1.60;;;1.00;;
54193;SDS011;40102;50.906;6.972;2022-09-23T13:38:43;2.72;;;1.15;;
54193;SDS011;40102;50.906;6.972;2022-09-23T13:41:14;1.50;;;1.17;;
54193;SDS011;40102;50.906;6.972;2022-09-23T13:43:49;1.70;;;1.10;;
54193;SDS011;40102;50.906;6.972;2022-09-23T13:46:19;1.42;;;1.00;;
54193;SDS011;40102;50.906;6.972;2022-09-23T13:48:47;2.00;;;0.90;;
54193;SDS011;40102;50.906;6.972;2022-09-23T13:51:18;1.90;;;1.02;;
54193;SDS011;40102;50.906;6.972;2022-09-23T13:53:50;1.85;;;1.15;;
54193;SDS011;40102;50.906;6.972;2022-09-23T13:56:18;2.00;;;1.10;;
54193;SDS011;40102;50.906;6.972;2022-09-23T13:58:44;3.45;;;1.08;;
54193;SDS011;40102;50.906;6.972;2022-09-23T14:03:58;1.45;;;1.10;;
54193;SDS011;40102;50.906;6.972;2022-09-23T14:06:24;1.80;;;1.10;;
54193;SDS011;40102;50.906;6.972;2022-09-23T14:08:53;1.38;;;1.02;;
54193;SDS011;40102;50.906;6.972;2022-09-23T14:11:21;1.70;;;1.00;;
54193;SDS011;40102;50.906;6.972;2022-09-23T14:13:54;2.50;;;1.20;;
54193;SDS011;40102;50.906;6.972;2022-09-23T14:16:22;2.10;;;1.35;;
54193;SDS011;40102;50.906;6.972;2022-09-23T14:18:51;2.80;;;1.27;;
54193;SDS011;40102;50.906;6.972;2022-09-23T14:21:33;3.65;;;1.20;;
54193;SDS011;40102;50.906;6.972;2022-09-23T14:26:38;1.40;;;0.95;;
54193;SDS011;40102;50.906;6.972;2022-09-23T14:29:10;1.30;;;1.02;;
54193;SDS011;40102;50.906;6.972;2022-09-23T14:31:39;4.30;;;1.40;;
54193;SDS011;40102;50.906;6.972;2022-09-23T14:34:36;2.38;;;1.20;;
54193;SDS011;40102;50.906;6.972;2022-09-23T14:37:47;2.22;;;1.30;;
54193;SDS011;40102;50.906;6.972;2022-09-23T14:40:24;3.40;;;1.02;;
54193;SDS011;40102;50.906;6.972;2022-09-23T14:43:03;3.30;;;1.23;;
54193;SDS011;40102;50.906;6.972;2022-09-23T14:45:30;1.33;;;1.10;;
54193;SDS011;40102;50.906;6.972;2022-09-23T14:50:37;2.83;;;1.52;;
54193;SDS011;40102;50.906;6.972;2022-09-23T14:56:06;6.15;;;1.73;;
54193;SDS011;40102;50.906;6.972;2022-09-23T15:04:12;4.00;;;1.42;;
54193;SDS011;40102;50.906;6.972;2022-09-23T15:06:39;2.40;;;1.50;;
54193;SDS011;40102;50.906;6.972;2022-09-23T15:09:30;3.72;;;1.50;;
54193;SDS011;40102;50.906;6.972;2022-09-23T15:12:00;3.88;;;2.00;;
54193;SDS011;40102;50.906;6.972;2022-09-23T15:14:32;2.20;;;1.42;;
54193;SDS011;40102;50.906;6.972;2022-09-23T15:17:01;2.88;;;1.55;;
54193;SDS011;40102;50.906;6.972;2022-09-23T15:19:30;3.20;;;1.40;;
54193;SDS011;40102;50.906;6.972;2022-09-23T15:21:59;2.35;;;1.58;;
54193;SDS011;40102;50.906;6.972;2022-09-23T15:24:39;2.90;;;1.80;;
54193;SDS011;40102;50.906;6.972;2022-09-23T15:29:53;2.25;;;1.58;;
54193;SDS011;40102;50.906;6.972;2022-09-23T15:32:23;4.63;;;1.48;;
54193;SDS011;40102;50.906;6.972;2022-09-23T15:34:48;2.90;;;1.50;;
54193;SDS011;40102;50.906;6.972;2022-09-23T15:37:15;4.32;;;1.50;;
54193;SDS011;40102;50.906;6.972;2022-09-23T15:39:40;2.03;;;1.17;;
54193;SDS011;40102;50.906;6.972;2022-09-23T15:42:07;2.70;;;1.35;;
54193;SDS011;40102;50.906;6.972;2022-09-23T15:44:34;2.50;;;1.40;;
54193;SDS011;40102;50.906;6.972;2022-09-23T15:47:00;4.57;;;1.58;;
54193;SDS011;40102;50.906;6.972;2022-09-23T15:49:35;3.78;;;1.70;;
54193;SDS011;40102;50.906;6.972;2022-09-23T15:52:05;2.60;;;1.43;;
54193;SDS011;40102;50.906;6.972;2022-09-23T15:54:34;3.95;;;1.60;;
54193;SDS011;40102;50.906;6.972;2022-09-23T15:57:00;1.98;;;1.17;;
54193;SDS011;40102;50.906;6.972;2022-09-23T15:59:26;2.50;;;1.35;;
54193;SDS011;40102;50.906;6.972;2022-09-23T16:01:53;3.13;;;1.58;;
54193;SDS011;40102;50.906;6.972;2022-09-23T16:04:20;3.72;;;1.33;;
54193;SDS011;40102;50.906;6.972;2022-09-23T16:06:45;4.45;;;1.10;;
54193;SDS011;40102;50.906;6.972;2022-09-23T16:09:13;2.20;;;1.20;;
54193;SDS011;40102;50.906;6.972;2022-09-23T16:11:39;2.58;;;1.30;;
54193;SDS011;40102;50.906;6.972;2022-09-23T16:14:12;2.55;;;1.40;;
54193;SDS011;40102;50.906;6.972;2022-09-23T16:16:39;3.75;;;1.30;;
54193;SDS011;40102;50.906;6.972;2022-09-23T16:19:06;4.28;;;1.40;;
54193;SDS011;40102;50.906;6.972;2022-09-23T16:21:31;2.00;;;1.33;;
54193;SDS011;40102;50.906;6.972;2022-09-23T16:23:57;3.75;;;1.63;;
54193;SDS011;40102;50.906;6.972;2022-09-23T16:26:30;4.38;;;1.27;;
54193;SDS011;40102;50.906;6.972;2022-09-23T16:28:58;4.72;;;1.35;;
54193;SDS011;40102;50.906;6.972;2022-09-23T16:31:25;3.63;;;1.30;;
54193;SDS011;40102;50.906;6.972;2022-09-23T16:33:53;3.08;;;1.40;;
54193;SDS011;40102;50.906;6.972;2022-09-23T16:36:20;2.72;;;1.15;;
54193;SDS011;40102;50.906;6.972;2022-09-23T16:38:51;1.73;;;1.17;;
54193;SDS011;40102;50.906;6.972;2022-09-23T16:41:21;2.42;;;1.20;;
54193;SDS011;40102;50.906;6.972;2022-09-23T16:43:48;2.72;;;1.20;;
54193;SDS011;40102;50.906;6.972;2022-09-23T16:46:14;2.80;;;1.50;;
54193;SDS011;40102;50.906;6.972;2022-09-23T16:48:41;2.78;;;1.50;;
54193;SDS011;40102;50.906;6.972;2022-09-23T16:51:07;2.45;;;1.55;;
54193;SDS011;40102;50.906;6.972;2022-09-23T16:53:45;4.10;;;1.50;;
54193;SDS011;40102;50.906;6.972;2022-09-23T16:56:15;1.58;;;1.42;;
54193;SDS011;40102;50.906;6.972;2022-09-23T16:58:41;1.88;;;1.30;;
54193;SDS011;40102;50.906;6.972;2022-09-23T17:01:12;3.47;;;1.70;;
54193;SDS011;40102;50.906;6.972;2022-09-23T17:03:58;2.60;;;1.55;;
54193;SDS011;40102;50.906;6.972;2022-09-23T17:06:23;3.05;;;1.80;;
54193;SDS011;40102;50.906;6.972;2022-09-23T17:08:51;3.80;;;1.67;;
54193;SDS011;40102;50.906;6.972;2022-09-23T17:11:17;2.85;;;1.63;;
54193;SDS011;40102;50.906;6.972;2022-09-23T17:13:43;4.90;;;1.85;;
54193;SDS011;40102;50.906;6.972;2022-09-23T17:16:30;3.45;;;2.03;;
54193;SDS011;40102;50.906;6.972;2022-09-23T17:18:58;2.95;;;1.73;;
54193;SDS011;40102;50.906;6.972;2022-09-23T17:21:28;5.25;;;2.00;;
54193;SDS011;40102;50.906;6.972;2022-09-23T17:23:54;2.88;;;1.63;;
54193;SDS011;40102;50.906;6.972;2022-09-23T17:26:21;3.85;;;1.98;;
54193;SDS011;40102;50.906;6.972;2022-09-23T17:28:48;5.97;;;2.50;;
54193;SDS011;40102;50.906;6.972;2022-09-23T17:31:21;5.80;;;2.70;;
54193;SDS011;40102;50.906;6.972;2022-09-23T17:33:48;5.38;;;2.50;;
54193;SDS011;40102;50.906;6.972;2022-09-23T17:36:15;4.70;;;2.75;;
54193;SDS011;40102;50.906;6.972;2022-09-23T17:38:41;7.97;;;3.92;;
54193;SDS011;40102;50.906;6.972;2022-09-23T17:41:09;9.55;;;5.40;;
54193;SDS011;40102;50.906;6.972;2022-09-23T17:43:35;6.03;;;3.50;;
54193;SDS011;40102;50.906;6.972;2022-09-23T17:46:02;5.05;;;3.15;;
54193;SDS011;40102;50.906;6.972;2022-09-23T17:48:32;4.07;;;2.75;;
54193;SDS011;40102;50.906;6.972;2022-09-23T17:51:01;7.18;;;3.92;;
54193;SDS011;40102;50.906;6.972;2022-09-23T17:53:32;8.15;;;3.72;;